createdAt,value
2022-07-26T00:01:59.931Z,2.43
2022-07-26T00:04:27.943Z,2.00
2022-07-26T00:06:56.243Z,2.37
2022-07-26T00:09:24.311Z,1.70
2022-07-26T00:11:52.497Z,1.60
2022-07-26T00:14:20.157Z,1.50
2022-07-26T00:16:47.811Z,2.00
2022-07-26T00:19:19.336Z,2.70
2022-07-26T00:21:46.934Z,1.90
2022-07-26T00:24:14.524Z,1.53
2022-07-26T00:26:42.333Z,2.07
2022-07-26T00:29:10.191Z,1.80
2022-07-26T00:31:38.233Z,1.53
2022-07-26T00:34:06.256Z,1.57
2022-07-26T00:36:36.198Z,1.70
2022-07-26T00:39:10.234Z,1.90
2022-07-26T00:41:38.021Z,2.07
2022-07-26T00:44:06.224Z,2.20
2022-07-26T00:46:33.872Z,1.60
2022-07-26T00:49:01.556Z,1.80
2022-07-26T00:51:29.713Z,1.90
2022-07-26T00:53:58.766Z,1.83
2022-07-26T00:56:27.039Z,1.60
2022-07-26T00:58:54.729Z,1.77
2022-07-26T01:01:22.414Z,1.70
2022-07-26T01:03:53.145Z,2.00
2022-07-26T01:06:25.315Z,1.70
2022-07-26T01:08:55.044Z,1.90
2022-07-26T01:11:23.884Z,1.80
2022-07-26T01:13:52.162Z,1.90
2022-07-26T01:16:19.791Z,1.87
2022-07-26T01:18:47.477Z,1.93
2022-07-26T01:21:15.049Z,1.73
2022-07-26T01:23:44.710Z,2.17
2022-07-26T01:26:12.642Z,1.83
2022-07-26T01:28:42.078Z,2.00
2022-07-26T01:31:10.030Z,1.70
2022-07-26T01:33:37.786Z,1.33
2022-07-26T01:36:05.948Z,1.60
2022-07-26T01:38:33.571Z,2.10
2022-07-26T01:41:02.768Z,1.70
2022-07-26T01:43:30.313Z,1.63
2022-07-26T01:45:58.143Z,1.67
2022-07-26T01:48:25.861Z,1.47
2022-07-26T01:50:53.403Z,2.53
2022-07-26T01:53:20.962Z,1.50
2022-07-26T01:55:48.552Z,2.63
2022-07-26T01:58:17.429Z,1.70
2022-07-26T02:00:44.967Z,2.07
2022-07-26T02:03:12.597Z,2.10
2022-07-26T02:05:40.210Z,1.50
2022-07-26T02:08:07.596Z,1.50
2022-07-26T02:10:54.823Z,1.47
2022-07-26T02:13:24.653Z,1.70
2022-07-26T02:15:52.380Z,1.77
2022-07-26T02:18:21.486Z,1.73
2022-07-26T02:20:49.090Z,1.60
2022-07-26T02:23:16.746Z,1.50
2022-07-26T02:25:44.300Z,1.47
2022-07-26T02:28:11.933Z,2.53
2022-07-26T02:30:56.046Z,1.83
2022-07-26T02:33:24.540Z,1.47
2022-07-26T02:35:52.071Z,1.90
2022-07-26T02:38:19.570Z,1.97
2022-07-26T02:40:47.559Z,2.00
2022-07-26T02:43:15.094Z,1.60
2022-07-26T02:45:42.576Z,1.43
2022-07-26T02:48:11.433Z,1.50
2022-07-26T02:50:40.764Z,1.90
2022-07-26T02:53:08.346Z,1.77
2022-07-26T02:55:35.821Z,1.57
2022-07-26T02:58:03.310Z,1.83
2022-07-26T03:00:30.896Z,1.80
2022-07-26T03:02:58.922Z,1.60
2022-07-26T03:05:28.245Z,1.70
2022-07-26T03:07:55.777Z,1.67
2022-07-26T03:10:23.309Z,1.70
2022-07-26T03:12:50.861Z,1.87
2022-07-26T03:15:18.712Z,1.90
2022-07-26T03:17:46.393Z,3.60
2022-07-26T03:20:14.606Z,1.73
2022-07-26T03:22:43.934Z,1.43
2022-07-26T03:25:11.572Z,1.60
2022-07-26T03:27:39.254Z,1.83
2022-07-26T03:30:08.075Z,1.40
2022-07-26T03:32:35.814Z,1.70
2022-07-26T03:35:03.433Z,1.83
2022-07-26T03:37:44.981Z,2.47
2022-07-26T03:40:15.912Z,1.50
2022-07-26T03:42:44.067Z,1.70
2022-07-26T03:45:12.248Z,1.93
2022-07-26T03:47:39.853Z,1.87
2022-07-26T03:50:08.557Z,1.90
2022-07-26T03:52:36.128Z,1.90
2022-07-26T03:55:24.414Z,2.00
2022-07-26T03:57:52.425Z,1.90
2022-07-26T04:00:19.986Z,2.00
2022-07-26T04:02:47.614Z,1.93
2022-07-26T04:05:15.336Z,2.03
2022-07-26T04:07:43.773Z,2.10
2022-07-26T04:10:19.969Z,2.27
2022-07-26T04:12:47.506Z,1.63
2022-07-26T04:15:18.825Z,1.63
2022-07-26T04:17:48.124Z,2.07
2022-07-26T04:20:16.209Z,1.93
2022-07-26T04:22:44.922Z,2.90
2022-07-26T04:25:12.730Z,2.27
2022-07-26T04:27:40.591Z,2.10
2022-07-26T04:30:14.487Z,2.10
2022-07-26T04:32:44.444Z,2.00
2022-07-26T04:35:14.503Z,3.40
2022-07-26T04:37:43.046Z,2.33
2022-07-26T04:40:12.977Z,2.10
2022-07-26T04:42:40.741Z,2.70
2022-07-26T04:45:10.814Z,2.07
2022-07-26T04:47:38.389Z,2.00
2022-07-26T04:50:09.328Z,1.80
2022-07-26T04:52:36.989Z,2.30
2022-07-26T04:55:05.163Z,2.60
2022-07-26T04:57:32.751Z,2.20
2022-07-26T05:00:20.257Z,2.60
2022-07-26T05:02:48.465Z,2.47
2022-07-26T05:05:17.742Z,2.13
2022-07-26T05:07:47.006Z,2.80
2022-07-26T05:10:15.619Z,3.10
2022-07-26T05:12:43.654Z,3.37
2022-07-26T05:15:13.667Z,2.67
2022-07-26T05:17:43.709Z,2.70
2022-07-26T05:20:14.739Z,2.97
2022-07-26T05:22:43.878Z,3.23
2022-07-26T05:25:11.487Z,2.30
2022-07-26T05:27:40.581Z,2.90
2022-07-26T05:30:10.050Z,3.03
2022-07-26T05:32:37.993Z,2.87
2022-07-26T05:35:06.642Z,3.00
2022-07-26T05:37:34.503Z,3.30
2022-07-26T05:40:03.729Z,2.77
2022-07-26T05:42:31.365Z,3.27
2022-07-26T05:45:01.153Z,2.87
2022-07-26T05:47:28.684Z,2.70
2022-07-26T05:49:56.457Z,3.17
2022-07-26T05:52:24.389Z,2.83
2022-07-26T05:54:52.051Z,2.87
2022-07-26T05:57:21.018Z,2.40
2022-07-26T05:59:48.689Z,2.50
2022-07-26T06:02:16.904Z,2.70
2022-07-26T06:04:45.700Z,2.70
2022-07-26T06:07:15.296Z,2.67
2022-07-26T06:09:43.052Z,2.60
2022-07-26T06:12:10.893Z,3.60
2022-07-26T06:14:39.790Z,2.47
2022-07-26T06:17:07.481Z,3.50
2022-07-26T06:19:35.868Z,2.93
2022-07-26T06:22:03.828Z,2.73
2022-07-26T06:24:50.987Z,3.60
2022-07-26T06:27:19.355Z,3.50
2022-07-26T06:29:49.315Z,3.00
2022-07-26T06:32:17.274Z,3.40
2022-07-26T06:34:44.891Z,3.00
2022-07-26T06:37:12.454Z,3.60
2022-07-26T06:39:40.085Z,3.00
2022-07-26T06:42:07.883Z,3.70
2022-07-26T06:44:36.315Z,3.00
2022-07-26T06:47:05.462Z,3.30
2022-07-26T06:49:33.050Z,4.37
2022-07-26T06:52:00.824Z,3.10
2022-07-26T06:54:28.364Z,3.60
2022-07-26T06:56:55.871Z,2.97
2022-07-26T06:59:23.428Z,2.60
2022-07-26T07:01:51.356Z,3.43
2022-07-26T07:04:28.404Z,3.20
2022-07-26T07:06:56.104Z,3.63
2022-07-26T07:09:25.465Z,3.63
2022-07-26T07:11:57.423Z,3.53
2022-07-26T07:14:28.622Z,4.10
2022-07-26T07:16:56.572Z,2.90
2022-07-26T07:19:24.831Z,3.90
2022-07-26T07:21:53.746Z,3.30
2022-07-26T07:24:21.467Z,3.50
2022-07-26T07:26:49.997Z,3.50
2022-07-26T07:29:20.194Z,3.67
2022-07-26T07:31:49.861Z,3.60
2022-07-26T07:34:22.544Z,3.30
2022-07-26T07:36:53.830Z,3.93
2022-07-26T07:39:22.097Z,3.23
2022-07-26T07:41:49.960Z,3.50
2022-07-26T07:44:17.699Z,3.70
2022-07-26T07:46:45.280Z,3.50
2022-07-26T07:49:13.287Z,3.30
2022-07-26T07:51:41.149Z,3.90
2022-07-26T07:54:10.804Z,3.33
2022-07-26T07:56:38.537Z,4.13
2022-07-26T07:59:07.337Z,3.60
2022-07-26T08:01:40.471Z,3.50
2022-07-26T08:04:09.512Z,3.03
2022-07-26T08:06:37.523Z,4.00
2022-07-26T08:09:10.490Z,3.00
2022-07-26T08:11:41.878Z,3.43
2022-07-26T08:14:10.382Z,3.73
2022-07-26T08:16:38.831Z,4.10
2022-07-26T08:19:08.872Z,2.90
2022-07-26T08:21:36.621Z,3.10
2022-07-26T08:24:04.474Z,2.50
2022-07-26T08:26:33.435Z,2.50
2022-07-26T08:29:01.010Z,2.60
2022-07-26T08:31:28.966Z,2.50
2022-07-26T08:33:57.104Z,2.80
2022-07-26T08:36:30.971Z,2.73
2022-07-26T08:39:00.543Z,2.57
2022-07-26T08:41:28.201Z,2.50
2022-07-26T08:44:06.330Z,1.90
2022-07-26T08:46:37.417Z,2.10
2022-07-26T08:49:07.480Z,1.90
2022-07-26T08:51:38.490Z,1.97
2022-07-26T08:54:06.394Z,1.43
2022-07-26T08:56:35.755Z,2.03
2022-07-26T08:59:19.569Z,2.00
2022-07-26T09:01:56.327Z,1.97
2022-07-26T09:04:35.399Z,1.60
2022-07-26T09:07:07.543Z,1.23
2022-07-26T09:09:37.183Z,1.60
2022-07-26T09:12:19.843Z,1.53
2022-07-26T09:14:49.070Z,1.23
2022-07-26T09:17:18.344Z,1.47
2022-07-26T09:19:46.831Z,1.53
2022-07-26T09:22:17.021Z,1.43
2022-07-26T09:24:47.097Z,3.93
2022-07-26T09:27:17.244Z,6.93
2022-07-26T09:29:46.927Z,2.17
2022-07-26T09:32:18.373Z,1.77
2022-07-26T09:34:52.604Z,1.60
2022-07-26T09:37:34.747Z,1.40
2022-07-26T09:40:04.826Z,2.07
2022-07-26T09:42:32.322Z,1.97
2022-07-26T09:45:00.275Z,1.80
2022-07-26T09:47:39.761Z,1.50
2022-07-26T09:50:12.626Z,1.60
2022-07-26T09:52:40.954Z,3.00
2022-07-26T09:55:10.187Z,1.50
2022-07-26T09:57:37.877Z,1.73
2022-07-26T10:00:07.766Z,1.90
2022-07-26T10:02:36.196Z,1.50
2022-07-26T10:05:06.648Z,1.40
2022-07-26T10:07:34.463Z,1.40
2022-07-26T10:10:04.467Z,1.27
2022-07-26T10:12:34.086Z,1.70
2022-07-26T10:15:01.706Z,1.40
2022-07-26T10:17:49.590Z,1.90
2022-07-26T10:20:46.564Z,1.67
2022-07-26T10:23:43.283Z,1.50
2022-07-26T10:26:14.013Z,1.30
2022-07-26T10:28:42.265Z,1.43
2022-07-26T10:31:31.173Z,1.47
2022-07-26T10:34:02.082Z,1.23
2022-07-26T10:36:34.482Z,1.10
2022-07-26T10:39:10.730Z,1.80
2022-07-26T10:41:41.831Z,1.00
2022-07-26T10:44:21.393Z,1.30
2022-07-26T10:47:01.493Z,1.33
2022-07-26T10:49:35.108Z,1.30
2022-07-26T10:52:09.976Z,1.33
2022-07-26T10:55:14.455Z,0.97
2022-07-26T10:57:44.066Z,1.10
2022-07-26T11:00:21.134Z,1.10
2022-07-26T11:02:53.506Z,1.13
2022-07-26T11:05:23.035Z,1.07
2022-07-26T11:07:55.384Z,0.97
2022-07-26T11:10:27.969Z,1.00
2022-07-26T11:13:13.558Z,1.10
2022-07-26T11:15:44.125Z,1.00
2022-07-26T11:18:18.573Z,1.00
2022-07-26T11:20:48.872Z,0.90
2022-07-26T11:23:35.891Z,0.73
2022-07-26T11:26:09.358Z,1.00
2022-07-26T11:28:52.849Z,0.90
2022-07-26T11:31:23.470Z,1.20
2022-07-26T11:34:18.520Z,1.40
2022-07-26T11:36:47.126Z,0.83
2022-07-26T11:39:17.319Z,1.00
2022-07-26T11:41:44.981Z,0.90
2022-07-26T11:44:17.760Z,1.00
2022-07-26T11:46:48.156Z,1.10
2022-07-26T11:49:17.307Z,1.07
2022-07-26T11:51:53.358Z,1.37
2022-07-26T11:54:22.821Z,1.67
2022-07-26T11:56:51.612Z,1.37
2022-07-26T11:59:20.037Z,1.47
2022-07-26T12:01:49.658Z,1.23
2022-07-26T12:04:23.691Z,1.93
2022-07-26T12:06:52.622Z,1.13
2022-07-26T12:09:33.552Z,1.47
2022-07-26T12:12:02.233Z,1.57
2022-07-26T12:14:31.334Z,1.50
2022-07-26T12:16:59.908Z,1.57
2022-07-26T12:19:30.626Z,1.43
2022-07-26T12:22:00.669Z,1.33
2022-07-26T12:24:47.637Z,1.50
2022-07-26T12:27:19.462Z,1.50
2022-07-26T12:29:49.031Z,1.43
2022-07-26T12:32:19.152Z,1.83
2022-07-26T12:34:58.071Z,1.50
2022-07-26T12:37:39.390Z,1.63
2022-07-26T12:40:12.071Z,2.43
2022-07-26T12:42:41.382Z,1.53
2022-07-26T12:45:11.468Z,1.47
2022-07-26T12:47:40.740Z,1.50
2022-07-26T12:50:09.804Z,1.40
2022-07-26T12:52:37.954Z,1.40
2022-07-26T12:55:07.482Z,1.67
2022-07-26T12:57:36.812Z,1.17
2022-07-26T13:00:05.973Z,1.30
2022-07-26T13:02:33.729Z,1.10
2022-07-26T13:05:04.463Z,1.07
2022-07-26T13:07:32.294Z,1.03
2022-07-26T13:10:31.187Z,1.27
2022-07-26T13:12:49.225Z,1.33
2022-07-26T13:15:17.298Z,1.10
2022-07-26T13:17:45.043Z,1.10
2022-07-26T13:20:12.775Z,1.40
2022-07-26T13:22:41.290Z,1.53
2022-07-26T13:25:10.060Z,1.43
2022-07-26T13:27:44.231Z,1.07
2022-07-26T13:30:14.632Z,1.10
2022-07-26T13:32:42.205Z,1.10
2022-07-26T13:35:09.792Z,1.23
2022-07-26T13:37:38.154Z,1.07
2022-07-26T13:40:06.999Z,1.20
2022-07-26T13:42:34.502Z,1.20
2022-07-26T13:45:02.250Z,1.20
2022-07-26T13:47:31.233Z,1.17
2022-07-26T13:49:58.853Z,1.37
2022-07-26T13:52:26.437Z,0.93
2022-07-26T13:54:54.206Z,1.20
2022-07-26T13:57:21.762Z,1.43
2022-07-26T13:59:49.322Z,1.23
2022-07-26T14:02:17.178Z,1.03
2022-07-26T14:04:46.206Z,1.30
2022-07-26T14:07:13.859Z,1.10
2022-07-26T14:09:42.141Z,1.20
2022-07-26T14:12:13.608Z,1.50
2022-07-26T14:14:41.221Z,1.50
2022-07-26T14:17:08.802Z,1.70
2022-07-26T14:19:36.765Z,1.17
2022-07-26T14:22:05.720Z,1.70
2022-07-26T14:24:33.344Z,1.53
2022-07-26T14:27:00.884Z,1.13
2022-07-26T14:29:30.503Z,1.10
2022-07-26T14:31:58.268Z,1.60
2022-07-26T14:34:26.159Z,1.20
2022-07-26T14:36:54.347Z,3.00
2022-07-26T14:39:23.401Z,1.00
2022-07-26T14:41:51.109Z,1.17
2022-07-26T14:44:19.479Z,1.40
2022-07-26T14:46:47.514Z,1.40
2022-07-26T14:49:15.171Z,1.63
2022-07-26T14:51:42.875Z,1.23
2022-07-26T14:54:11.225Z,1.00
2022-07-26T14:56:40.521Z,1.57
2022-07-26T14:59:08.047Z,1.00
2022-07-26T15:01:35.649Z,1.70
2022-07-26T15:04:03.318Z,1.00
2022-07-26T15:06:30.894Z,1.30
2022-07-26T15:08:58.507Z,1.13
2022-07-26T15:11:26.016Z,1.50
2022-07-26T15:13:55.887Z,1.30
2022-07-26T15:16:23.544Z,1.00
2022-07-26T15:18:51.162Z,1.97
2022-07-26T15:21:18.958Z,1.10
2022-07-26T15:23:46.616Z,1.13
2022-07-26T15:26:14.358Z,1.50
2022-07-26T15:28:41.884Z,1.20
2022-07-26T15:31:12.050Z,1.50
2022-07-26T15:33:39.710Z,1.20
2022-07-26T15:36:07.266Z,1.40
2022-07-26T15:38:34.851Z,1.87
2022-07-26T15:41:02.662Z,1.73
2022-07-26T15:43:48.336Z,1.90
2022-07-26T15:46:18.125Z,1.57
2022-07-26T15:48:47.271Z,1.30
2022-07-26T15:51:16.014Z,1.60
2022-07-26T15:53:46.420Z,1.70
2022-07-26T15:56:14.430Z,1.53
2022-07-26T15:58:42.065Z,1.80
2022-07-26T16:01:09.836Z,1.30
2022-07-26T16:03:38.782Z,1.90
2022-07-26T16:06:06.440Z,1.50
2022-07-26T16:08:43.086Z,1.50
2022-07-26T16:11:22.033Z,1.30
2022-07-26T16:13:49.625Z,1.70
2022-07-26T16:16:17.261Z,2.13
2022-07-26T16:18:46.286Z,1.50
2022-07-26T16:21:13.856Z,1.93
2022-07-26T16:23:42.499Z,1.70
2022-07-26T16:26:10.165Z,1.60
2022-07-26T16:28:38.043Z,1.87
2022-07-26T16:31:06.080Z,1.53
2022-07-26T16:33:33.811Z,1.33
2022-07-26T16:36:06.118Z,1.37
2022-07-26T16:38:34.351Z,1.70
2022-07-26T16:41:02.022Z,1.40
2022-07-26T16:43:31.294Z,1.43
2022-07-26T16:45:59.066Z,2.40
2022-07-26T16:48:26.702Z,2.13
2022-07-26T16:50:54.768Z,1.80
2022-07-26T16:53:23.673Z,1.43
2022-07-26T16:55:52.014Z,3.03
2022-07-26T16:58:19.899Z,2.03
2022-07-26T17:00:47.663Z,2.10
2022-07-26T17:03:15.845Z,1.57
2022-07-26T17:05:44.479Z,2.90
2022-07-26T17:08:12.148Z,2.70
2022-07-26T17:10:41.031Z,2.00
2022-07-26T17:13:08.804Z,1.90
2022-07-26T17:15:36.881Z,1.67
2022-07-26T17:18:05.589Z,1.37
2022-07-26T17:20:35.557Z,1.70
2022-07-26T17:23:03.060Z,2.90
2022-07-26T17:25:30.799Z,2.73
2022-07-26T17:27:59.657Z,3.60
2022-07-26T17:30:27.667Z,2.97
2022-07-26T17:32:55.668Z,1.73
2022-07-26T17:35:23.764Z,2.27
2022-07-26T17:37:55.441Z,1.60
2022-07-26T17:40:25.630Z,1.77
2022-07-26T17:42:55.634Z,2.90
2022-07-26T17:45:24.558Z,1.80
2022-07-26T17:47:52.043Z,1.70
2022-07-26T17:50:36.082Z,1.77
2022-07-26T17:53:05.221Z,1.60
2022-07-26T17:55:32.973Z,2.27
2022-07-26T17:58:00.493Z,1.37
2022-07-26T18:00:29.693Z,1.40
2022-07-26T18:02:57.489Z,1.27
2022-07-26T18:05:32.263Z,1.13
2022-07-26T18:08:02.042Z,1.70
2022-07-26T18:10:34.161Z,1.70
2022-07-26T18:13:02.116Z,1.50
2022-07-26T18:15:31.145Z,1.63
2022-07-26T18:17:58.955Z,1.80
2022-07-26T18:20:26.517Z,1.10
2022-07-26T18:22:55.475Z,1.43
2022-07-26T18:25:23.149Z,1.30
2022-07-26T18:27:50.925Z,1.40
2022-07-26T18:30:18.681Z,1.30
2022-07-26T18:32:47.627Z,1.43
2022-07-26T18:35:15.254Z,1.30
2022-07-26T18:37:42.870Z,1.37
2022-07-26T18:40:10.876Z,1.73
2022-07-26T18:42:38.446Z,1.30
2022-07-26T18:45:07.268Z,1.40
2022-07-26T18:47:34.780Z,1.43
2022-07-26T18:50:04.081Z,1.50
2022-07-26T18:52:32.821Z,2.80
2022-07-26T18:55:06.673Z,1.80
2022-07-26T18:57:34.943Z,1.43
2022-07-26T19:00:02.684Z,1.27
2022-07-26T19:02:30.224Z,1.20
2022-07-26T19:04:57.743Z,1.20
2022-07-26T19:07:26.835Z,1.43
2022-07-26T19:09:58.385Z,1.80
2022-07-26T19:12:27.037Z,1.30
2022-07-26T19:14:54.766Z,1.47
2022-07-26T19:17:22.430Z,1.83
2022-07-26T19:19:49.929Z,1.67
2022-07-26T19:22:17.418Z,1.30
2022-07-26T19:24:46.452Z,1.27
2022-07-26T19:27:14.950Z,1.40
2022-07-26T19:29:42.725Z,1.30
2022-07-26T19:32:10.508Z,1.40
2022-07-26T19:34:38.151Z,1.50
2022-07-26T19:37:05.762Z,1.77
2022-07-26T19:39:33.296Z,1.20
2022-07-26T19:42:02.527Z,1.70
2022-07-26T19:44:30.101Z,1.30
2022-07-26T19:46:58.119Z,1.10
2022-07-26T19:49:25.883Z,1.27
2022-07-26T19:51:53.446Z,1.23
2022-07-26T19:54:21.240Z,1.57
2022-07-26T19:56:48.777Z,1.47
2022-07-26T19:59:23.066Z,1.20
2022-07-26T20:01:52.886Z,1.63
2022-07-26T20:04:20.595Z,1.50
2022-07-26T20:06:48.153Z,1.50
2022-07-26T20:09:15.950Z,1.77
2022-07-26T20:11:46.353Z,1.20
2022-07-26T20:14:13.846Z,1.17
2022-07-26T20:16:42.786Z,1.30
2022-07-26T20:19:10.636Z,1.70
2022-07-26T20:21:38.499Z,1.20
2022-07-26T20:24:06.762Z,1.47
2022-07-26T20:26:37.327Z,1.40
2022-07-26T20:29:08.346Z,1.50
2022-07-26T20:31:36.128Z,1.40
2022-07-26T20:34:05.018Z,1.20
2022-07-26T20:36:32.584Z,1.40
2022-07-26T20:39:00.747Z,1.90
2022-07-26T20:41:33.727Z,1.40
2022-07-26T20:44:06.008Z,2.00
2022-07-26T20:46:39.813Z,1.00
2022-07-26T20:49:09.954Z,1.40
2022-07-26T20:51:39.113Z,1.10
2022-07-26T20:54:08.378Z,1.83
2022-07-26T20:56:35.917Z,0.93
2022-07-26T20:59:04.773Z,1.83
2022-07-26T21:01:33.442Z,1.47
2022-07-26T21:04:01.293Z,1.50
2022-07-26T21:06:30.556Z,1.43
2022-07-26T21:08:58.640Z,1.70
2022-07-26T21:11:26.779Z,3.10
2022-07-26T21:13:54.666Z,1.27
2022-07-26T21:16:22.250Z,1.20
2022-07-26T21:18:52.905Z,1.37
2022-07-26T21:21:20.913Z,1.70
2022-07-26T21:23:49.808Z,1.33
2022-07-26T21:26:17.578Z,1.43
2022-07-26T21:28:45.102Z,1.23
2022-07-26T21:31:12.688Z,1.50
2022-07-26T21:33:40.349Z,1.20
2022-07-26T21:36:07.884Z,1.27
2022-07-26T21:38:35.405Z,1.40
2022-07-26T21:41:04.348Z,1.60
2022-07-26T21:43:31.970Z,1.27
2022-07-26T21:45:59.730Z,1.20
2022-07-26T21:48:27.585Z,1.20
2022-07-26T21:50:55.116Z,1.40
2022-07-26T21:53:22.655Z,1.43
2022-07-26T21:55:50.171Z,1.40
2022-07-26T21:58:18.980Z,1.30
2022-07-26T22:00:46.649Z,1.40
2022-07-26T22:03:14.231Z,1.30
2022-07-26T22:05:43.250Z,1.50
2022-07-26T22:08:12.778Z,1.43
2022-07-26T22:10:44.699Z,1.37
2022-07-26T22:13:13.238Z,1.40
2022-07-26T22:15:42.729Z,1.60
2022-07-26T22:18:10.577Z,1.10
2022-07-26T22:20:39.130Z,1.30
2022-07-26T22:23:08.210Z,1.67
2022-07-26T22:25:37.008Z,1.20
2022-07-26T22:28:06.119Z,1.70
2022-07-26T22:30:34.393Z,1.40
2022-07-26T22:33:08.154Z,1.37
2022-07-26T22:35:36.892Z,1.13
2022-07-26T22:38:06.520Z,2.30
2022-07-26T22:40:34.275Z,1.10
2022-07-26T22:43:02.411Z,1.40
2022-07-26T22:45:31.035Z,2.50
2022-07-26T22:47:59.557Z,1.57
2022-07-26T22:50:29.292Z,1.10
2022-07-26T22:52:57.275Z,1.10
2022-07-26T22:55:25.257Z,1.30
2022-07-26T22:57:53.154Z,1.60
2022-07-26T23:00:21.259Z,1.33
2022-07-26T23:02:49.150Z,1.40
2022-07-26T23:05:16.881Z,1.27
2022-07-26T23:07:48.153Z,1.70
2022-07-26T23:10:16.742Z,1.20
2022-07-26T23:12:44.949Z,1.17
2022-07-26T23:15:13.048Z,1.20
2022-07-26T23:17:40.651Z,1.50
2022-07-26T23:20:10.407Z,1.40
2022-07-26T23:22:38.227Z,1.50
2022-07-26T23:25:07.862Z,1.60
2022-07-26T23:27:35.501Z,1.40
2022-07-26T23:30:03.029Z,1.27
2022-07-26T23:32:30.570Z,1.10
2022-07-26T23:34:58.060Z,1.10
2022-07-26T23:37:25.568Z,1.10
2022-07-26T23:39:53.124Z,1.77
2022-07-26T23:42:21.949Z,1.47
2022-07-26T23:44:49.521Z,1.20
2022-07-26T23:47:17.102Z,0.90
2022-07-26T23:49:44.748Z,2.00
2022-07-26T23:52:12.281Z,1.00
2022-07-26T23:54:40.118Z,4.33
2022-07-26T23:57:07.679Z,1.60
2022-07-26T23:59:36.589Z,1.33
